sensor_id;sensor_type;location;lat;lon;timestamp;temperature;humidity
39067;DHT22;24821;51.988;6.020;2023-03-01T00:01:21;1.00;94.90
39067;DHT22;24821;51.988;6.020;2023-03-01T00:03:48;1.00;94.90
39067;DHT22;24821;51.988;6.020;2023-03-01T00:06:13;1.00;94.90
39067;DHT22;24821;51.988;6.020;2023-03-01T00:08:39;1.00;94.90
39067;DHT22;24821;51.988;6.020;2023-03-01T00:11:06;0.90;95.00
39067;DHT22;24821;51.988;6.020;2023-03-01T00:13:33;0.90;95.10
39067;DHT22;24821;51.988;6.020;2023-03-01T00:16:05;0.90;95.10
39067;DHT22;24821;51.988;6.020;2023-03-01T00:18:31;0.90;95.20
39067;DHT22;24821;51.988;6.020;2023-03-01T00:20:57;0.90;95.20
39067;DHT22;24821;51.988;6.020;2023-03-01T00:23:23;0.90;95.30
39067;DHT22;24821;51.988;6.020;2023-03-01T00:25:49;0.90;95.30
39067;DHT22;24821;51.988;6.020;2023-03-01T00:28:15;0.90;95.30
39067;DHT22;24821;51.988;6.020;2023-03-01T00:30:40;0.80;95.40
39067;DHT22;24821;51.988;6.020;2023-03-01T00:33:06;0.90;95.50
39067;DHT22;24821;51.988;6.020;2023-03-01T00:35:32;0.80;95.50
39067;DHT22;24821;51.988;6.020;2023-03-01T00:37:58;0.80;95.50
39067;DHT22;24821;51.988;6.020;2023-03-01T00:40:25;0.80;95.60
39067;DHT22;24821;51.988;6.020;2023-03-01T00:42:51;0.80;95.60
39067;DHT22;24821;51.988;6.020;2023-03-01T00:45:17;0.80;95.70
39067;DHT22;24821;51.988;6.020;2023-03-01T00:47:42;0.70;95.80
39067;DHT22;24821;51.988;6.020;2023-03-01T00:50:09;0.70;95.90
39067;DHT22;24821;51.988;6.020;2023-03-01T00:52:35;0.70;96.00
39067;DHT22;24821;51.988;6.020;2023-03-01T00:55:01;0.70;96.00
39067;DHT22;24821;51.988;6.020;2023-03-01T00:57:26;0.60;96.10
39067;DHT22;24821;51.988;6.020;2023-03-01T00:59:52;0.60;96.20
39067;DHT22;24821;51.988;6.020;2023-03-01T01:02:19;0.60;96.20
39067;DHT22;24821;51.988;6.020;2023-03-01T01:04:45;0.60;96.30
39067;DHT22;24821;51.988;6.020;2023-03-01T01:07:11;0.60;96.30
39067;DHT22;24821;51.988;6.020;2023-03-01T01:09:36;0.60;96.30
39067;DHT22;24821;51.988;6.020;2023-03-01T01:12:03;0.60;96.40
39067;DHT22;24821;51.988;6.020;2023-03-01T01:14:28;0.50;96.40
39067;DHT22;24821;51.988;6.020;2023-03-01T01:16:54;0.50;96.40
39067;DHT22;24821;51.988;6.020;2023-03-01T01:19:20;0.50;96.50
39067;DHT22;24821;51.988;6.020;2023-03-01T01:21:46;0.50;96.50
39067;DHT22;24821;51.988;6.020;2023-03-01T01:24:13;0.50;96.50
39067;DHT22;24821;51.988;6.020;2023-03-01T01:26:39;0.50;96.50
39067;DHT22;24821;51.988;6.020;2023-03-01T01:29:05;0.40;96.50
39067;DHT22;24821;51.988;6.020;2023-03-01T01:31:32;0.40;96.60
39067;DHT22;24821;51.988;6.020;2023-03-01T01:33:59;0.40;96.70
39067;DHT22;24821;51.988;6.020;2023-03-01T01:36:25;0.40;96.70
39067;DHT22;24821;51.988;6.020;2023-03-01T01:38:51;0.30;96.80
39067;DHT22;24821;51.988;6.020;2023-03-01T01:41:17;0.30;96.80
39067;DHT22;24821;51.988;6.020;2023-03-01T01:44:22;0.30;96.90
39067;DHT22;24821;51.988;6.020;2023-03-01T01:51:52;0.20;97.10
39067;DHT22;24821;51.988;6.020;2023-03-01T01:54:23;0.10;97.10
39067;DHT22;24821;51.988;6.020;2023-03-01T01:56:53;0.10;97.30
39067;DHT22;24821;51.988;6.020;2023-03-01T01:59:20;0.10;97.40
39067;DHT22;24821;51.988;6.020;2023-03-01T02:01:50;0.10;97.40
39067;DHT22;24821;51.988;6.020;2023-03-01T02:04:16;0.10;97.50
39067;DHT22;24821;51.988;6.020;2023-03-01T02:06:53;0.10;97.60
39067;DHT22;24821;51.988;6.020;2023-03-01T02:09:22;0.10;97.60
39067;DHT22;24821;51.988;6.020;2023-03-01T02:11:48;0.10;97.70
39067;DHT22;24821;51.988;6.020;2023-03-01T02:14:15;0.00;97.80
39067;DHT22;24821;51.988;6.020;2023-03-01T02:16:41;0.10;97.80
39067;DHT22;24821;51.988;6.020;2023-03-01T02:19:09;0.00;97.80
39067;DHT22;24821;51.988;6.020;2023-03-01T02:22:07;0.00;97.90
39067;DHT22;24821;51.988;6.020;2023-03-01T02:24:45;0.00;97.90
39067;DHT22;24821;51.988;6.020;2023-03-01T02:27:13;0.00;98.10
39067;DHT22;24821;51.988;6.020;2023-03-01T02:29:40;-0.10;98.20
39067;DHT22;24821;51.988;6.020;2023-03-01T02:32:10;-0.10;98.30
39067;DHT22;24821;51.988;6.020;2023-03-01T02:34:36;-0.10;98.30
39067;DHT22;24821;51.988;6.020;2023-03-01T02:37:07;-0.10;98.40
39067;DHT22;24821;51.988;6.020;2023-03-01T02:39:40;0.00;98.50
39067;DHT22;24821;51.988;6.020;2023-03-01T02:42:13;0.00;98.50
39067;DHT22;24821;51.988;6.020;2023-03-01T02:44:40;-0.10;98.50
39067;DHT22;24821;51.988;6.020;2023-03-01T02:47:05;-0.10;98.50
39067;DHT22;24821;51.988;6.020;2023-03-01T02:49:33;0.00;98.50
39067;DHT22;24821;51.988;6.020;2023-03-01T02:52:23;0.00;98.50
39067;DHT22;24821;51.988;6.020;2023-03-01T02:55:06;0.00;98.80
39067;DHT22;24821;51.988;6.020;2023-03-01T02:57:35;-0.10;98.60
39067;DHT22;24821;51.988;6.020;2023-03-01T03:00:11;-0.10;98.60
39067;DHT22;24821;51.988;6.020;2023-03-01T03:02:47;-0.10;98.60
39067;DHT22;24821;51.988;6.020;2023-03-01T03:05:20;-0.10;98.70
39067;DHT22;24821;51.988;6.020;2023-03-01T03:07:48;-0.10;98.70
39067;DHT22;24821;51.988;6.020;2023-03-01T03:10:23;-0.10;98.70
39067;DHT22;24821;51.988;6.020;2023-03-01T03:13:02;-0.10;98.70
39067;DHT22;24821;51.988;6.020;2023-03-01T03:15:28;-0.20;98.80
39067;DHT22;24821;51.988;6.020;2023-03-01T03:17:55;-0.10;98.90
39067;DHT22;24821;51.988;6.020;2023-03-01T03:20:24;-0.20;98.90
39067;DHT22;24821;51.988;6.020;2023-03-01T03:22:52;-0.20;98.90
39067;DHT22;24821;51.988;6.020;2023-03-01T03:25:19;-0.20;99.00
39067;DHT22;24821;51.988;6.020;2023-03-01T03:27:46;-0.20;99.00
39067;DHT22;24821;51.988;6.020;2023-03-01T03:30:16;-0.20;99.10
39067;DHT22;24821;51.988;6.020;2023-03-01T03:32:44;-0.20;99.10
39067;DHT22;24821;51.988;6.020;2023-03-01T03:35:22;-0.20;99.20
39067;DHT22;24821;51.988;6.020;2023-03-01T03:37:48;-0.20;99.20
39067;DHT22;24821;51.988;6.020;2023-03-01T03:40:39;-0.20;99.30
39067;DHT22;24821;51.988;6.020;2023-03-01T03:43:07;-0.20;99.30
39067;DHT22;24821;51.988;6.020;2023-03-01T03:45:34;-0.30;99.30
39067;DHT22;24821;51.988;6.020;2023-03-01T03:48:02;-0.30;99.40
39067;DHT22;24821;51.988;6.020;2023-03-01T03:50:28;-0.30;99.40
39067;DHT22;24821;51.988;6.020;2023-03-01T03:52:54;-0.30;99.40
39067;DHT22;24821;51.988;6.020;2023-03-01T03:55:19;-0.40;99.50
39067;DHT22;24821;51.988;6.020;2023-03-01T03:57:47;-0.30;99.60
39067;DHT22;24821;51.988;6.020;2023-03-01T04:00:18;-0.30;99.70
39067;DHT22;24821;51.988;6.020;2023-03-01T04:02:44;-0.40;99.70
39067;DHT22;24821;51.988;6.020;2023-03-01T04:05:11;-0.40;99.80
39067;DHT22;24821;51.988;6.020;2023-03-01T04:07:38;-0.40;99.80
39067;DHT22;24821;51.988;6.020;2023-03-01T04:10:12;-0.30;99.90
39067;DHT22;24821;51.988;6.020;2023-03-01T04:12:38;-0.30;99.90
39067;DHT22;24821;51.988;6.020;2023-03-01T04:15:06;-0.40;99.90
39067;DHT22;24821;51.988;6.020;2023-03-01T04:17:42;-0.40;99.90
39067;DHT22;24821;51.988;6.020;2023-03-01T04:20:10;-0.50;99.90
39067;DHT22;24821;51.988;6.020;2023-03-01T04:22:39;-0.50;99.90
39067;DHT22;24821;51.988;6.020;2023-03-01T04:25:06;-0.50;99.90
39067;DHT22;24821;51.988;6.020;2023-03-01T04:27:36;-0.50;99.90
39067;DHT22;24821;51.988;6.020;2023-03-01T04:30:03;-0.50;99.90
39067;DHT22;24821;51.988;6.020;2023-03-01T04:32:29;-0.50;99.90
39067;DHT22;24821;51.988;6.020;2023-03-01T04:34:55;-0.50;99.90
39067;DHT22;24821;51.988;6.020;2023-03-01T04:37:20;-0.50;99.90
39067;DHT22;24821;51.988;6.020;2023-03-01T04:39:46;-0.50;99.90
39067;DHT22;24821;51.988;6.020;2023-03-01T04:42:13;-0.50;99.90
39067;DHT22;24821;51.988;6.020;2023-03-01T04:44:39;-0.50;99.90
39067;DHT22;24821;51.988;6.020;2023-03-01T04:47:05;-0.50;99.90
39067;DHT22;24821;51.988;6.020;2023-03-01T04:49:31;-0.50;99.90
39067;DHT22;24821;51.988;6.020;2023-03-01T04:51:57;-0.50;99.90
39067;DHT22;24821;51.988;6.020;2023-03-01T04:54:28;-0.50;99.90
39067;DHT22;24821;51.988;6.020;2023-03-01T04:56:54;-0.50;99.90
39067;DHT22;24821;51.988;6.020;2023-03-01T04:59:19;-0.50;99.90
39067;DHT22;24821;51.988;6.020;2023-03-01T05:01:48;-0.60;99.90
39067;DHT22;24821;51.988;6.020;2023-03-01T05:04:14;-0.60;99.90
39067;DHT22;24821;51.988;6.020;2023-03-01T05:06:39;-0.60;99.90
39067;DHT22;24821;51.988;6.020;2023-03-01T05:09:05;-0.60;99.90
39067;DHT22;24821;51.988;6.020;2023-03-01T05:11:30;-0.60;99.90
39067;DHT22;24821;51.988;6.020;2023-03-01T05:14:04;-0.60;99.90
39067;DHT22;24821;51.988;6.020;2023-03-01T05:16:30;-0.60;99.90
39067;DHT22;24821;51.988;6.020;2023-03-01T05:18:56;-0.60;99.90
39067;DHT22;24821;51.988;6.020;2023-03-01T05:21:22;-0.60;99.90
39067;DHT22;24821;51.988;6.020;2023-03-01T05:23:48;-0.60;99.90
39067;DHT22;24821;51.988;6.020;2023-03-01T05:26:15;-0.60;99.90
39067;DHT22;24821;51.988;6.020;2023-03-01T05:28:40;-0.60;99.90
39067;DHT22;24821;51.988;6.020;2023-03-01T05:31:06;-0.60;99.90
39067;DHT22;24821;51.988;6.020;2023-03-01T05:33:36;-0.60;99.90
39067;DHT22;24821;51.988;6.020;2023-03-01T05:36:02;-0.60;99.90
39067;DHT22;24821;51.988;6.020;2023-03-01T05:38:28;-0.60;99.90
39067;DHT22;24821;51.988;6.020;2023-03-01T05:40:53;-0.60;99.90
39067;DHT22;24821;51.988;6.020;2023-03-01T05:43:19;-0.60;99.90
39067;DHT22;24821;51.988;6.020;2023-03-01T05:45:45;-0.70;99.90
39067;DHT22;24821;51.988;6.020;2023-03-01T05:48:11;-0.70;99.90
39067;DHT22;24821;51.988;6.020;2023-03-01T05:50:43;-0.70;99.90
39067;DHT22;24821;51.988;6.020;2023-03-01T05:53:15;-0.70;99.90
39067;DHT22;24821;51.988;6.020;2023-03-01T05:55:41;-0.70;99.90
39067;DHT22;24821;51.988;6.020;2023-03-01T05:58:10;-0.70;99.90
39067;DHT22;24821;51.988;6.020;2023-03-01T06:00:36;-0.80;99.90
39067;DHT22;24821;51.988;6.020;2023-03-01T06:03:02;-0.80;99.90
39067;DHT22;24821;51.988;6.020;2023-03-01T06:05:28;-0.80;99.90
39067;DHT22;24821;51.988;6.020;2023-03-01T06:07:54;-0.80;99.90
39067;DHT22;24821;51.988;6.020;2023-03-01T06:10:22;-0.80;99.90
39067;DHT22;24821;51.988;6.020;2023-03-01T06:12:48;-0.80;99.90
39067;DHT22;24821;51.988;6.020;2023-03-01T06:15:15;-0.80;99.90
39067;DHT22;24821;51.988;6.020;2023-03-01T06:17:42;-0.80;99.90
39067;DHT22;24821;51.988;6.020;2023-03-01T06:20:19;-0.80;99.90
39067;DHT22;24821;51.988;6.020;2023-03-01T06:22:46;-0.80;99.90
39067;DHT22;24821;51.988;6.020;2023-03-01T06:25:13;-0.80;99.90
39067;DHT22;24821;51.988;6.020;2023-03-01T06:27:40;-0.80;99.90
39067;DHT22;24821;51.988;6.020;2023-03-01T06:30:06;-0.80;99.90
39067;DHT22;24821;51.988;6.020;2023-03-01T06:32:33;-0.80;99.90
39067;DHT22;24821;51.988;6.020;2023-03-01T06:34:58;-0.80;99.90
39067;DHT22;24821;51.988;6.020;2023-03-01T06:37:25;-0.70;99.90
39067;DHT22;24821;51.988;6.020;2023-03-01T06:39:50;-0.70;99.90
39067;DHT22;24821;51.988;6.020;2023-03-01T06:42:16;-0.70;99.90
39067;DHT22;24821;51.988;6.020;2023-03-01T06:44:42;-0.70;99.90
39067;DHT22;24821;51.988;6.020;2023-03-01T06:47:07;-0.70;99.90
39067;DHT22;24821;51.988;6.020;2023-03-01T06:49:33;-0.80;99.90
39067;DHT22;24821;51.988;6.020;2023-03-01T06:51:59;-0.80;99.90
39067;DHT22;24821;51.988;6.020;2023-03-01T06:54:24;-0.70;99.90
39067;DHT22;24821;51.988;6.020;2023-03-01T06:56:50;-0.70;99.90
39067;DHT22;24821;51.988;6.020;2023-03-01T06:59:17;-0.60;99.90
39067;DHT22;24821;51.988;6.020;2023-03-01T07:01:43;-0.60;99.90
39067;DHT22;24821;51.988;6.020;2023-03-01T07:04:10;-0.50;99.90
39067;DHT22;24821;51.988;6.020;2023-03-01T07:06:36;-0.50;99.90
39067;DHT22;24821;51.988;6.020;2023-03-01T07:09:01;-0.40;99.90
39067;DHT22;24821;51.988;6.020;2023-03-01T07:11:27;-0.30;99.90
39067;DHT22;24821;51.988;6.020;2023-03-01T07:13:53;-0.20;99.90
39067;DHT22;24821;51.988;6.020;2023-03-01T07:16:18;0.00;99.90
39067;DHT22;24821;51.988;6.020;2023-03-01T07:18:45;0.00;99.90
39067;DHT22;24821;51.988;6.020;2023-03-01T07:21:12;0.10;99.90
39067;DHT22;24821;51.988;6.020;2023-03-01T07:23:38;0.30;99.90
39067;DHT22;24821;51.988;6.020;2023-03-01T07:26:04;0.70;99.90
39067;DHT22;24821;51.988;6.020;2023-03-01T07:28:30;1.20;99.90
39067;DHT22;24821;51.988;6.020;2023-03-01T07:31:00;1.60;99.90
39067;DHT22;24821;51.988;6.020;2023-03-01T07:33:26;2.10;99.90
39067;DHT22;24821;51.988;6.020;2023-03-01T07:36:02;2.40;99.90
39067;DHT22;24821;51.988;6.020;2023-03-01T07:38:29;2.70;99.50
39067;DHT22;24821;51.988;6.020;2023-03-01T07:40:59;2.80;99.10
39067;DHT22;24821;51.988;6.020;2023-03-01T07:43:26;2.90;98.90
39067;DHT22;24821;51.988;6.020;2023-03-01T07:45:51;3.00;98.80
39067;DHT22;24821;51.988;6.020;2023-03-01T07:48:17;3.20;98.40
39067;DHT22;24821;51.988;6.020;2023-03-01T07:50:43;3.40;98.30
39067;DHT22;24821;51.988;6.020;2023-03-01T07:53:09;3.50;98.00
39067;DHT22;24821;51.988;6.020;2023-03-01T07:55:35;3.60;97.90
39067;DHT22;24821;51.988;6.020;2023-03-01T07:58:01;3.70;98.20
39067;DHT22;24821;51.988;6.020;2023-03-01T08:00:26;3.80;97.60
39067;DHT22;24821;51.988;6.020;2023-03-01T08:02:52;3.90;97.50
39067;DHT22;24821;51.988;6.020;2023-03-01T08:05:18;4.10;97.00
39067;DHT22;24821;51.988;6.020;2023-03-01T08:07:43;4.20;96.30
39067;DHT22;24821;51.988;6.020;2023-03-01T08:10:10;4.20;96.20
39067;DHT22;24821;51.988;6.020;2023-03-01T08:12:36;4.00;96.20
39067;DHT22;24821;51.988;6.020;2023-03-01T08:15:01;3.90;96.30
39067;DHT22;24821;51.988;6.020;2023-03-01T08:17:27;3.80;96.40
39067;DHT22;24821;51.988;6.020;2023-03-01T08:19:52;3.70;96.50
39067;DHT22;24821;51.988;6.020;2023-03-01T08:22:18;3.50;96.70
39067;DHT22;24821;51.988;6.020;2023-03-01T08:24:43;3.40;96.90
39067;DHT22;24821;51.988;6.020;2023-03-01T08:27:09;3.30;97.00
39067;DHT22;24821;51.988;6.020;2023-03-01T08:29:35;3.20;97.20
39067;DHT22;24821;51.988;6.020;2023-03-01T08:32:00;3.20;97.50
39067;DHT22;24821;51.988;6.020;2023-03-01T08:34:26;3.10;97.60
39067;DHT22;24821;51.988;6.020;2023-03-01T08:36:52;3.10;97.70
39067;DHT22;24821;51.988;6.020;2023-03-01T08:39:19;3.00;97.80
39067;DHT22;24821;51.988;6.020;2023-03-01T08:41:45;3.00;98.00
39067;DHT22;24821;51.988;6.020;2023-03-01T08:44:12;3.00;97.90
39067;DHT22;24821;51.988;6.020;2023-03-01T08:46:40;3.00;98.10
39067;DHT22;24821;51.988;6.020;2023-03-01T08:49:07;3.00;98.20
39067;DHT22;24821;51.988;6.020;2023-03-01T08:51:33;3.10;98.30
39067;DHT22;24821;51.988;6.020;2023-03-01T08:54:04;3.10;98.30
39067;DHT22;24821;51.988;6.020;2023-03-01T08:56:30;3.10;98.40
39067;DHT22;24821;51.988;6.020;2023-03-01T08:58:56;3.20;98.50
39067;DHT22;24821;51.988;6.020;2023-03-01T09:01:21;3.20;98.60
39067;DHT22;24821;51.988;6.020;2023-03-01T09:03:47;3.30;98.60
39067;DHT22;24821;51.988;6.020;2023-03-01T09:06:13;3.30;98.40
39067;DHT22;24821;51.988;6.020;2023-03-01T09:08:44;3.30;98.10
39067;DHT22;24821;51.988;6.020;2023-03-01T09:11:13;3.40;98.30
39067;DHT22;24821;51.988;6.020;2023-03-01T09:13:40;3.40;98.50
39067;DHT22;24821;51.988;6.020;2023-03-01T09:16:07;3.50;98.50
39067;DHT22;24821;51.988;6.020;2023-03-01T09:18:34;3.50;98.30
39067;DHT22;24821;51.988;6.020;2023-03-01T09:21:13;3.60;98.10
39067;DHT22;24821;51.988;6.020;2023-03-01T09:23:41;3.60;98.10
39067;DHT22;24821;51.988;6.020;2023-03-01T09:26:08;3.70;98.00
39067;DHT22;24821;51.988;6.020;2023-03-01T09:28:37;3.70;98.10
39067;DHT22;24821;51.988;6.020;2023-03-01T09:31:04;3.70;98.10
39067;DHT22;24821;51.988;6.020;2023-03-01T09:33:31;3.80;98.20
39067;DHT22;24821;51.988;6.020;2023-03-01T09:36:05;3.90;98.20
39067;DHT22;24821;51.988;6.020;2023-03-01T09:38:30;4.00;97.90
39067;DHT22;24821;51.988;6.020;2023-03-01T09:40:56;4.00;97.80
39067;DHT22;24821;51.988;6.020;2023-03-01T09:43:44;4.10;97.70
39067;DHT22;24821;51.988;6.020;2023-03-01T09:46:14;4.20;97.80
39067;DHT22;24821;51.988;6.020;2023-03-01T09:48:45;4.20;97.70
39067;DHT22;24821;51.988;6.020;2023-03-01T09:51:32;4.30;97.30
39067;DHT22;24821;51.988;6.020;2023-03-01T09:53:58;4.40;97.20
39067;DHT22;24821;51.988;6.020;2023-03-01T09:59:20;4.40;96.70
39067;DHT22;24821;51.988;6.020;2023-03-01T10:04:38;4.60;96.90
39067;DHT22;24821;51.988;6.020;2023-03-01T10:07:30;4.70;96.30
39067;DHT22;24821;51.988;6.020;2023-03-01T10:09:57;4.70;95.90
39067;DHT22;24821;51.988;6.020;2023-03-01T10:12:30;4.80;95.50
39067;DHT22;24821;51.988;6.020;2023-03-01T10:15:05;4.80;95.20
39067;DHT22;24821;51.988;6.020;2023-03-01T10:17:39;4.90;95.00
39067;DHT22;24821;51.988;6.020;2023-03-01T10:22:41;4.90;94.60
39067;DHT22;24821;51.988;6.020;2023-03-01T10:25:13;5.00;94.40
39067;DHT22;24821;51.988;6.020;2023-03-01T10:27:52;5.10;93.90
39067;DHT22;24821;51.988;6.020;2023-03-01T10:32:53;5.20;93.70
39067;DHT22;24821;51.988;6.020;2023-03-01T10:35:23;5.30;93.50
39067;DHT22;24821;51.988;6.020;2023-03-01T10:38:05;5.20;93.00
39067;DHT22;24821;51.988;6.020;2023-03-01T10:40:32;5.30;92.90
39067;DHT22;24821;51.988;6.020;2023-03-01T10:43:00;5.30;93.10
39067;DHT22;24821;51.988;6.020;2023-03-01T10:45:37;5.40;93.00
39067;DHT22;24821;51.988;6.020;2023-03-01T10:48:16;5.50;92.60
39067;DHT22;24821;51.988;6.020;2023-03-01T10:50:43;5.50;92.40
39067;DHT22;24821;51.988;6.020;2023-03-01T10:53:28;5.50;91.70
39067;DHT22;24821;51.988;6.020;2023-03-01T10:56:09;5.50;91.50
39067;DHT22;24821;51.988;6.020;2023-03-01T10:58:37;5.50;91.50
39067;DHT22;24821;51.988;6.020;2023-03-01T11:01:08;5.50;91.30
39067;DHT22;24821;51.988;6.020;2023-03-01T11:06:34;5.50;91.40
39067;DHT22;24821;51.988;6.020;2023-03-01T11:09:23;5.50;91.50
39067;DHT22;24821;51.988;6.020;2023-03-01T11:12:16;5.60;91.40
39067;DHT22;24821;51.988;6.020;2023-03-01T11:14:55;5.70;91.40
39067;DHT22;24821;51.988;6.020;2023-03-01T11:17:28;5.70;91.20
39067;DHT22;24821;51.988;6.020;2023-03-01T11:22:56;5.80;91.10
39067;DHT22;24821;51.988;6.020;2023-03-01T11:25:32;5.80;90.50
39067;DHT22;24821;51.988;6.020;2023-03-01T11:28:01;5.90;90.20
39067;DHT22;24821;51.988;6.020;2023-03-01T11:30:31;5.90;90.40
39067;DHT22;24821;51.988;6.020;2023-03-01T11:35:49;6.00;89.30
39067;DHT22;24821;51.988;6.020;2023-03-01T11:38:26;5.90;89.70
39067;DHT22;24821;51.988;6.020;2023-03-01T11:49:08;6.20;90.30
39067;DHT22;24821;51.988;6.020;2023-03-01T11:57:44;6.20;90.00
39067;DHT22;24821;51.988;6.020;2023-03-01T12:03:38;6.30;88.20
39067;DHT22;24821;51.988;6.020;2023-03-01T12:09:23;6.30;88.80
39067;DHT22;24821;51.988;6.020;2023-03-01T12:20:46;6.50;86.20
39067;DHT22;24821;51.988;6.020;2023-03-01T12:23:32;6.50;87.90
39067;DHT22;24821;51.988;6.020;2023-03-01T12:37:59;6.60;85.90
39067;DHT22;24821;51.988;6.020;2023-03-01T12:51:26;6.70;84.50
39067;DHT22;24821;51.988;6.020;2023-03-01T12:53:55;6.80;85.20
39067;DHT22;24821;51.988;6.020;2023-03-01T12:56:29;6.90;84.30
39067;DHT22;24821;51.988;6.020;2023-03-01T12:59:23;7.00;84.90
39067;DHT22;24821;51.988;6.020;2023-03-01T13:02:32;7.10;85.60
39067;DHT22;24821;51.988;6.020;2023-03-01T13:08:06;7.20;83.50
39067;DHT22;24821;51.988;6.020;2023-03-01T13:10:49;7.20;83.90
39067;DHT22;24821;51.988;6.020;2023-03-01T13:13:24;7.30;84.70
39067;DHT22;24821;51.988;6.020;2023-03-01T13:15:51;7.30;84.00
39067;DHT22;24821;51.988;6.020;2023-03-01T13:20:55;7.40;83.00
39067;DHT22;24821;51.988;6.020;2023-03-01T13:31:07;7.50;81.40
39067;DHT22;24821;51.988;6.020;2023-03-01T13:36:10;7.60;81.80
39067;DHT22;24821;51.988;6.020;2023-03-01T13:46:48;7.60;81.10
39067;DHT22;24821;51.988;6.020;2023-03-01T13:49:20;7.60;77.70
39067;DHT22;24821;51.988;6.020;2023-03-01T13:51:47;7.50;77.80
39067;DHT22;24821;51.988;6.020;2023-03-01T13:54:15;7.60;80.20
39067;DHT22;24821;51.988;6.020;2023-03-01T13:56:41;7.60;80.70
39067;DHT22;24821;51.988;6.020;2023-03-01T13:59:18;7.60;81.50
39067;DHT22;24821;51.988;6.020;2023-03-01T14:01:52;7.60;81.70
39067;DHT22;24821;51.988;6.020;2023-03-01T14:04:25;7.70;80.40
39067;DHT22;24821;51.988;6.020;2023-03-01T14:06:52;7.70;78.60
39067;DHT22;24821;51.988;6.020;2023-03-01T14:09:37;7.70;79.60
39067;DHT22;24821;51.988;6.020;2023-03-01T14:12:12;7.70;80.60
39067;DHT22;24821;51.988;6.020;2023-03-01T14:17:22;7.80;80.80
39067;DHT22;24821;51.988;6.020;2023-03-01T14:19:56;7.80;79.90
39067;DHT22;24821;51.988;6.020;2023-03-01T14:22:31;7.80;80.00
39067;DHT22;24821;51.988;6.020;2023-03-01T14:25:00;7.80;78.70
39067;DHT22;24821;51.988;6.020;2023-03-01T14:27:32;7.70;79.80
39067;DHT22;24821;51.988;6.020;2023-03-01T14:30:00;7.80;79.10
39067;DHT22;24821;51.988;6.020;2023-03-01T14:32:31;7.80;80.30
39067;DHT22;24821;51.988;6.020;2023-03-01T14:34:59;7.80;79.60
39067;DHT22;24821;51.988;6.020;2023-03-01T14:37:34;7.80;78.20
39067;DHT22;24821;51.988;6.020;2023-03-01T14:40:00;7.80;76.50
39067;DHT22;24821;51.988;6.020;2023-03-01T14:42:34;7.70;77.20
39067;DHT22;24821;51.988;6.020;2023-03-01T14:45:01;7.60;76.90
39067;DHT22;24821;51.988;6.020;2023-03-01T14:47:32;7.60;77.60
39067;DHT22;24821;51.988;6.020;2023-03-01T14:50:07;7.60;77.40
39067;DHT22;24821;51.988;6.020;2023-03-01T14:52:40;7.60;77.60
39067;DHT22;24821;51.988;6.020;2023-03-01T14:55:16;7.60;78.60
39067;DHT22;24821;51.988;6.020;2023-03-01T14:57:45;7.60;76.90
39067;DHT22;24821;51.988;6.020;2023-03-01T15:00:21;7.60;76.50
39067;DHT22;24821;51.988;6.020;2023-03-01T15:02:49;7.60;76.30
39067;DHT22;24821;51.988;6.020;2023-03-01T15:05:18;7.60;77.40
39067;DHT22;24821;51.988;6.020;2023-03-01T15:07:47;7.50;77.40
39067;DHT22;24821;51.988;6.020;2023-03-01T15:10:25;7.50;77.20
39067;DHT22;24821;51.988;6.020;2023-03-01T15:12:51;7.60;78.10
39067;DHT22;24821;51.988;6.020;2023-03-01T15:15:39;7.50;78.00
39067;DHT22;24821;51.988;6.020;2023-03-01T15:18:25;7.50;78.10
39067;DHT22;24821;51.988;6.020;2023-03-01T15:20:51;7.50;77.80
39067;DHT22;24821;51.988;6.020;2023-03-01T15:23:24;7.50;76.80
39067;DHT22;24821;51.988;6.020;2023-03-01T15:25:51;7.50;76.40
39067;DHT22;24821;51.988;6.020;2023-03-01T15:28:33;7.50;76.40
39067;DHT22;24821;51.988;6.020;2023-03-01T15:31:06;7.40;76.20
39067;DHT22;24821;51.988;6.020;2023-03-01T15:33:38;7.50;76.10
39067;DHT22;24821;51.988;6.020;2023-03-01T15:36:31;7.40;77.30
39067;DHT22;24821;51.988;6.020;2023-03-01T15:38:58;7.40;78.30
39067;DHT22;24821;51.988;6.020;2023-03-01T15:41:47;7.40;78.30
39067;DHT22;24821;51.988;6.020;2023-03-01T15:44:26;7.40;78.70
39067;DHT22;24821;51.988;6.020;2023-03-01T15:46:52;7.40;78.40
39067;DHT22;24821;51.988;6.020;2023-03-01T15:49:39;7.40;79.40
39067;DHT22;24821;51.988;6.020;2023-03-01T15:52:12;7.40;78.70
39067;DHT22;24821;51.988;6.020;2023-03-01T15:54:39;7.30;79.10
39067;DHT22;24821;51.988;6.020;2023-03-01T15:57:09;7.30;79.00
39067;DHT22;24821;51.988;6.020;2023-03-01T15:59:37;7.20;79.20
39067;DHT22;24821;51.988;6.020;2023-03-01T16:02:09;7.20;79.70
39067;DHT22;24821;51.988;6.020;2023-03-01T16:04:34;7.20;80.00
39067;DHT22;24821;51.988;6.020;2023-03-01T16:07:00;7.20;77.70
39067;DHT22;24821;51.988;6.020;2023-03-01T16:09:26;7.20;77.80
39067;DHT22;24821;51.988;6.020;2023-03-01T16:11:53;7.10;77.90
39067;DHT22;24821;51.988;6.020;2023-03-01T16:14:19;7.10;78.10
39067;DHT22;24821;51.988;6.020;2023-03-01T16:16:45;7.10;78.80
39067;DHT22;24821;51.988;6.020;2023-03-01T16:19:11;7.00;78.10
39067;DHT22;24821;51.988;6.020;2023-03-01T16:21:37;6.90;78.00
39067;DHT22;24821;51.988;6.020;2023-03-01T16:24:03;6.90;78.30
39067;DHT22;24821;51.988;6.020;2023-03-01T16:26:29;6.90;78.70
39067;DHT22;24821;51.988;6.020;2023-03-01T16:28:56;6.90;79.90
39067;DHT22;24821;51.988;6.020;2023-03-01T16:31:22;6.80;79.70
39067;DHT22;24821;51.988;6.020;2023-03-01T16:33:48;6.80;79.50
39067;DHT22;24821;51.988;6.020;2023-03-01T16:36:19;6.70;79.50
39067;DHT22;24821;51.988;6.020;2023-03-01T16:38:45;6.60;80.20
39067;DHT22;24821;51.988;6.020;2023-03-01T16:41:13;6.60;80.40
39067;DHT22;24821;51.988;6.020;2023-03-01T16:43:39;6.50;80.60
39067;DHT22;24821;51.988;6.020;2023-03-01T16:46:14;6.50;81.00
39067;DHT22;24821;51.988;6.020;2023-03-01T16:48:40;6.40;81.40
39067;DHT22;24821;51.988;6.020;2023-03-01T16:51:06;6.40;81.70
39067;DHT22;24821;51.988;6.020;2023-03-01T16:53:36;6.30;81.90
39067;DHT22;24821;51.988;6.020;2023-03-01T16:56:08;6.30;82.00
39067;DHT22;24821;51.988;6.020;2023-03-01T16:58:35;6.30;82.60
39067;DHT22;24821;51.988;6.020;2023-03-01T17:01:15;6.20;83.00
39067;DHT22;24821;51.988;6.020;2023-03-01T17:03:41;6.10;83.30
39067;DHT22;24821;51.988;6.020;2023-03-01T17:06:09;6.10;84.00
39067;DHT22;24821;51.988;6.020;2023-03-01T17:08:36;6.00;84.30
39067;DHT22;24821;51.988;6.020;2023-03-01T17:11:07;6.00;84.30
39067;DHT22;24821;51.988;6.020;2023-03-01T17:13:33;5.90;84.20
39067;DHT22;24821;51.988;6.020;2023-03-01T17:15:59;5.90;84.30
39067;DHT22;24821;51.988;6.020;2023-03-01T17:18:25;5.80;84.80
39067;DHT22;24821;51.988;6.020;2023-03-01T17:20:50;5.70;85.40
39067;DHT22;24821;51.988;6.020;2023-03-01T17:23:16;5.70;85.60
39067;DHT22;24821;51.988;6.020;2023-03-01T17:25:43;5.60;85.40
39067;DHT22;24821;51.988;6.020;2023-03-01T17:28:10;5.60;85.30
39067;DHT22;24821;51.988;6.020;2023-03-01T17:30:36;5.50;85.30
39067;DHT22;24821;51.988;6.020;2023-03-01T17:33:01;5.50;85.40
39067;DHT22;24821;51.988;6.020;2023-03-01T17:35:27;5.40;85.50
39067;DHT22;24821;51.988;6.020;2023-03-01T17:37:52;5.30;85.60
39067;DHT22;24821;51.988;6.020;2023-03-01T17:40:18;5.30;85.90